createdAt,value
2022-10-28T00:00:12.774Z,7.78
2022-10-28T00:01:23.093Z,6.57
2022-10-28T00:02:25.864Z,7.20
2022-10-28T00:03:29.902Z,6.78
2022-10-28T00:04:31.891Z,6.07
2022-10-28T00:05:34.565Z,5.83
2022-10-28T00:06:37.267Z,5.88
2022-10-28T00:07:38.855Z,5.43
2022-10-28T00:08:41.244Z,5.10
2022-10-28T00:09:44.961Z,4.72
2022-10-28T00:10:47.832Z,4.68
2022-10-28T00:11:49.858Z,4.40
2022-10-28T00:12:54.519Z,4.30
2022-10-28T00:13:58.013Z,4.28
2022-10-28T00:14:59.830Z,4.15
2022-10-28T00:16:07.066Z,4.15
2022-10-28T00:17:08.864Z,4.78
2022-10-28T00:18:12.345Z,4.32
2022-10-28T00:19:14.946Z,4.13
2022-10-28T00:20:16.210Z,4.47
2022-10-28T00:21:24.650Z,4.47
2022-10-28T00:22:29.398Z,4.28
2022-10-28T00:23:32.748Z,4.97
2022-10-28T00:24:35.036Z,5.45
2022-10-28T00:25:37.041Z,6.82
2022-10-28T00:26:39.822Z,6.68
2022-10-28T00:27:44.314Z,7.30
2022-10-28T00:28:47.810Z,7.57
2022-10-28T00:29:51.856Z,7.43
2022-10-28T00:30:53.939Z,7.60
2022-10-28T00:31:56.347Z,7.78
2022-10-28T00:32:58.098Z,6.53
2022-10-28T00:34:04.158Z,6.65
2022-10-28T00:35:08.249Z,6.80
2022-10-28T00:36:11.200Z,7.10
2022-10-28T00:37:13.915Z,6.38
2022-10-28T00:38:17.471Z,6.82
2022-10-28T00:39:21.150Z,6.43
2022-10-28T00:40:25.983Z,5.40
2022-10-28T00:41:48.379Z,5.20
2022-10-28T00:42:50.265Z,5.22
2022-10-28T00:44:01.965Z,5.60
2022-10-28T00:45:04.979Z,5.07
2022-10-28T00:46:13.538Z,5.10
2022-10-28T00:47:28.626Z,5.80
2022-10-28T00:48:31.204Z,5.32
2022-10-28T00:49:33.783Z,5.80
2022-10-28T00:50:46.498Z,5.30
2022-10-28T00:51:49.325Z,5.80
2022-10-28T00:52:56.386Z,6.22
2022-10-28T00:53:58.448Z,5.43
2022-10-28T00:55:01.877Z,7.53
2022-10-28T00:56:04.626Z,7.30
2022-10-28T00:57:09.767Z,5.38
2022-10-28T00:58:12.204Z,6.40
2022-10-28T00:59:17.318Z,7.05
2022-10-28T01:00:19.034Z,6.53
2022-10-28T01:01:21.585Z,7.28
2022-10-28T01:02:24.096Z,7.57
2022-10-28T01:03:26.778Z,6.80
2022-10-28T01:04:28.889Z,7.82
2022-10-28T01:05:37.371Z,7.80
2022-10-28T01:06:42.590Z,6.20
2022-10-28T01:07:45.402Z,6.40
2022-10-28T01:08:48.879Z,6.80
2022-10-28T01:09:53.438Z,6.35
2022-10-28T01:11:20.297Z,6.18
2022-10-28T01:12:37.250Z,5.28
2022-10-28T01:13:47.317Z,4.70
2022-10-28T01:14:58.837Z,4.32
2022-10-28T01:16:00.999Z,4.72
2022-10-28T01:17:14.174Z,4.38
2022-10-28T01:18:34.841Z,4.30
2022-10-28T01:19:45.130Z,4.63
2022-10-28T01:21:05.266Z,5.13
2022-10-28T01:22:22.782Z,4.80
2022-10-28T01:23:54.078Z,5.18
2022-10-28T01:25:13.950Z,6.05
2022-10-28T01:26:30.995Z,4.88
2022-10-28T01:27:50.656Z,4.53
2022-10-28T01:28:52.955Z,5.25
2022-10-28T01:30:07.834Z,4.55
2022-10-28T01:31:34.024Z,5.18
2022-10-28T01:32:53.901Z,7.38
2022-10-28T01:33:57.334Z,7.67
2022-10-28T01:35:22.949Z,6.53
2022-10-28T01:36:52.056Z,6.97
2022-10-28T01:38:06.510Z,4.65
2022-10-28T01:39:41.711Z,4.35
2022-10-28T01:40:46.878Z,4.90
2022-10-28T01:41:56.907Z,4.95
2022-10-28T01:43:16.160Z,4.68
2022-10-28T01:44:29.278Z,4.25
2022-10-28T01:46:05.898Z,4.57
2022-10-28T01:47:10.815Z,4.68
2022-10-28T01:48:20.251Z,4.85
2022-10-28T01:49:24.157Z,5.05
2022-10-28T01:50:46.231Z,5.28
2022-10-28T01:51:49.368Z,4.70
2022-10-28T01:52:54.039Z,5.15
2022-10-28T01:53:57.427Z,5.00
2022-10-28T01:55:25.935Z,4.40
2022-10-28T01:56:36.686Z,4.47
2022-10-28T01:57:39.404Z,4.90
2022-10-28T01:58:43.891Z,4.00
2022-10-28T01:59:47.767Z,4.63
2022-10-28T02:00:50.364Z,4.22
2022-10-28T02:01:51.744Z,4.20
2022-10-28T02:02:57.773Z,5.10
2022-10-28T02:03:59.059Z,5.60
2022-10-28T02:05:05.880Z,5.55
2022-10-28T02:06:15.424Z,5.20
2022-10-28T02:07:16.959Z,5.80
2022-10-28T02:08:22.627Z,6.13
2022-10-28T02:09:44.806Z,5.60
2022-10-28T02:11:05.600Z,6.10
2022-10-28T02:12:17.094Z,5.35
2022-10-28T02:13:19.324Z,5.95
2022-10-28T02:14:39.382Z,6.10
2022-10-28T02:15:55.610Z,5.80
2022-10-28T02:16:57.006Z,4.18
2022-10-28T02:18:18.087Z,4.78
2022-10-28T02:19:40.675Z,5.22
2022-10-28T02:20:57.102Z,5.40
2022-10-28T02:22:08.604Z,5.55
2022-10-28T02:23:28.586Z,5.75
2022-10-28T02:24:38.034Z,5.63
2022-10-28T02:25:46.421Z,6.22
2022-10-28T02:26:55.697Z,6.10
2022-10-28T02:28:13.613Z,5.88
2022-10-28T02:29:31.417Z,5.78
2022-10-28T02:30:54.035Z,6.03
2022-10-28T02:31:58.758Z,5.47
2022-10-28T02:33:05.170Z,5.85
2022-10-28T02:34:10.075Z,5.47
2022-10-28T02:35:17.815Z,6.07
2022-10-28T02:36:21.285Z,7.18
2022-10-28T02:37:27.469Z,6.72
2022-10-28T02:38:36.617Z,5.85
2022-10-28T02:39:40.413Z,6.10
2022-10-28T02:40:45.189Z,5.90
2022-10-28T02:41:56.078Z,5.70
2022-10-28T02:42:59.962Z,5.85
2022-10-28T02:44:05.506Z,6.18
2022-10-28T02:45:11.655Z,6.00
2022-10-28T02:46:13.407Z,5.82
2022-10-28T02:47:16.927Z,6.45
2022-10-28T02:48:22.121Z,5.30
2022-10-28T02:49:27.878Z,5.32
2022-10-28T02:50:38.520Z,5.70
2022-10-28T02:51:55.749Z,6.53
2022-10-28T02:52:59.187Z,6.22
2022-10-28T02:54:09.055Z,5.78
2022-10-28T02:55:10.803Z,5.60
2022-10-28T02:56:13.554Z,5.63
2022-10-28T02:57:18.646Z,6.20
2022-10-28T02:58:20.189Z,4.63
2022-10-28T02:59:26.342Z,4.68
2022-10-28T03:00:29.304Z,4.82
2022-10-28T03:01:31.047Z,5.25
2022-10-28T03:02:35.269Z,5.20
2022-10-28T03:03:37.005Z,3.90
2022-10-28T03:04:39.425Z,5.25
2022-10-28T03:05:41.015Z,5.85
2022-10-28T03:06:45.509Z,6.82
2022-10-28T03:07:47.004Z,6.55
2022-10-28T03:08:48.940Z,6.70
2022-10-28T03:09:51.649Z,5.57
2022-10-28T03:10:54.520Z,4.93
2022-10-28T03:11:55.937Z,4.57
2022-10-28T03:12:58.343Z,4.40
2022-10-28T03:14:00.141Z,4.40
2022-10-28T03:15:03.937Z,4.40
2022-10-28T03:16:08.247Z,4.40
2022-10-28T03:17:12.459Z,4.60
2022-10-28T03:18:14.003Z,4.45
2022-10-28T03:19:15.949Z,4.10
2022-10-28T03:20:18.111Z,4.20
2022-10-28T03:21:21.173Z,5.30
2022-10-28T03:22:25.775Z,6.20
2022-10-28T03:23:28.534Z,6.85
2022-10-28T03:24:29.998Z,6.40
2022-10-28T03:25:32.478Z,6.45
2022-10-28T03:26:34.131Z,7.10
2022-10-28T03:27:36.490Z,7.13
2022-10-28T03:28:38.139Z,6.75
2022-10-28T03:29:45.022Z,6.38
2022-10-28T03:30:47.991Z,8.13
2022-10-28T03:31:50.525Z,9.10
2022-10-28T03:32:52.274Z,10.07
2022-10-28T03:33:55.071Z,7.85
2022-10-28T03:34:57.043Z,6.13
2022-10-28T03:35:59.698Z,5.47
2022-10-28T03:37:01.102Z,7.82
2022-10-28T03:38:05.973Z,5.57
2022-10-28T03:39:07.221Z,5.07
2022-10-28T03:40:11.947Z,4.97
2022-10-28T03:41:14.028Z,4.57
2022-10-28T03:42:16.521Z,4.32
2022-10-28T03:43:18.331Z,4.50
2022-10-28T03:44:19.590Z,4.53
2022-10-28T03:45:22.067Z,4.68
2022-10-28T03:46:24.790Z,4.75
2022-10-28T03:47:29.082Z,4.53
2022-10-28T03:48:30.963Z,4.75
2022-10-28T03:49:33.903Z,5.10
2022-10-28T03:50:38.414Z,5.22
2022-10-28T03:51:39.995Z,5.35
2022-10-28T03:52:46.742Z,5.50
2022-10-28T03:53:49.062Z,5.35
2022-10-28T03:54:51.012Z,5.25
2022-10-28T03:55:55.727Z,5.07
2022-10-28T03:57:01.565Z,6.70
2022-10-28T03:58:03.174Z,5.30
2022-10-28T03:59:08.883Z,4.90
2022-10-28T04:00:11.494Z,5.63
2022-10-28T04:01:13.435Z,4.72
2022-10-28T04:02:15.894Z,4.78
2022-10-28T04:03:18.497Z,4.30
2022-10-28T04:04:19.968Z,4.43
2022-10-28T04:05:23.825Z,4.40
2022-10-28T04:06:25.983Z,4.50
2022-10-28T04:07:30.744Z,5.18
2022-10-28T04:08:32.961Z,5.18
2022-10-28T04:09:37.257Z,5.95
2022-10-28T04:10:42.558Z,5.70
2022-10-28T04:11:49.767Z,7.13
2022-10-28T04:12:56.871Z,6.80
2022-10-28T04:13:59.405Z,5.63
2022-10-28T04:15:01.138Z,5.65
2022-10-28T04:16:04.683Z,5.28
2022-10-28T04:17:06.137Z,5.15
2022-10-28T04:18:09.340Z,5.50
2022-10-28T04:19:13.250Z,5.35
2022-10-28T04:20:14.575Z,5.45
2022-10-28T04:21:19.201Z,5.30
2022-10-28T04:22:21.293Z,5.20
2022-10-28T04:23:26.114Z,5.40
2022-10-28T04:24:28.846Z,5.28
2022-10-28T04:25:30.225Z,5.90
2022-10-28T04:26:32.752Z,5.20
2022-10-28T04:27:35.154Z,5.28
2022-10-28T04:28:37.602Z,3.75
2022-10-28T04:29:39.165Z,4.20
2022-10-28T04:30:41.005Z,3.75
2022-10-28T04:31:42.635Z,4.47
2022-10-28T04:32:46.664Z,4.30
2022-10-28T04:33:48.324Z,4.30
2022-10-28T04:34:51.046Z,4.50
2022-10-28T04:35:55.421Z,4.25
2022-10-28T04:36:58.077Z,4.20
2022-10-28T04:38:00.010Z,4.60
2022-10-28T04:39:02.176Z,4.30
2022-10-28T04:40:04.671Z,5.03
2022-10-28T04:41:08.591Z,5.80
2022-10-28T04:42:10.124Z,6.20
2022-10-28T04:43:12.316Z,6.80
2022-10-28T04:44:14.471Z,6.30
2022-10-28T04:45:15.776Z,7.20
2022-10-28T04:46:18.019Z,6.40
2022-10-28T04:47:21.253Z,6.40
2022-10-28T04:48:23.798Z,6.80
2022-10-28T04:49:26.601Z,7.07
2022-10-28T04:50:28.090Z,6.90
2022-10-28T04:51:29.496Z,6.28
2022-10-28T04:52:31.371Z,6.35
2022-10-28T04:53:33.157Z,6.93
2022-10-28T04:54:35.254Z,5.68
2022-10-28T04:55:40.462Z,5.63
2022-10-28T04:56:45.094Z,4.45
2022-10-28T04:58:04.950Z,4.95
2022-10-28T04:59:10.102Z,4.83
2022-10-28T05:00:11.692Z,4.90
2022-10-28T05:01:13.411Z,5.22
2022-10-28T05:02:15.233Z,4.32
2022-10-28T05:03:17.047Z,4.22
2022-10-28T05:04:19.324Z,3.95
2022-10-28T05:05:23.807Z,4.30
2022-10-28T05:06:26.472Z,4.72
2022-10-28T05:07:27.990Z,4.18
2022-10-28T05:08:32.683Z,4.70
2022-10-28T05:09:38.522Z,4.90
2022-10-28T05:10:40.394Z,4.53
2022-10-28T05:11:44.579Z,5.60
2022-10-28T05:12:48.452Z,5.00
2022-10-28T05:13:56.500Z,4.78
2022-10-28T05:14:58.011Z,5.20
2022-10-28T05:16:00.082Z,6.07
2022-10-28T05:17:05.002Z,6.68
2022-10-28T05:18:07.531Z,5.53
2022-10-28T05:19:12.390Z,6.10
2022-10-28T05:20:14.822Z,6.00
2022-10-28T05:21:20.087Z,6.30
2022-10-28T05:22:25.542Z,5.53
2022-10-28T05:23:29.889Z,5.30
2022-10-28T05:24:33.025Z,5.35
2022-10-28T05:25:35.974Z,5.78
2022-10-28T05:26:38.085Z,5.80
2022-10-28T05:27:40.543Z,5.80
2022-10-28T05:28:45.390Z,6.40
2022-10-28T05:29:46.755Z,6.25
2022-10-28T05:30:48.352Z,6.25
2022-10-28T05:31:58.508Z,5.72
2022-10-28T05:33:03.706Z,5.47
2022-10-28T05:34:05.107Z,4.40
2022-10-28T05:35:09.291Z,4.35
2022-10-28T05:36:11.265Z,4.40
2022-10-28T05:37:13.171Z,4.78
2022-10-28T05:38:15.709Z,4.05
2022-10-28T05:39:20.541Z,5.20
2022-10-28T05:40:23.186Z,5.30
2022-10-28T05:41:25.041Z,6.25
2022-10-28T05:42:27.716Z,5.60
2022-10-28T05:43:32.072Z,5.95
2022-10-28T05:44:35.079Z,6.00
2022-10-28T05:45:39.646Z,7.15
2022-10-28T05:46:42.482Z,6.72
2022-10-28T05:47:44.886Z,7.43
2022-10-28T05:48:49.718Z,7.07
2022-10-28T05:49:51.219Z,8.23
2022-10-28T05:50:55.978Z,5.82
2022-10-28T05:51:59.014Z,5.80
2022-10-28T05:53:02.095Z,4.93
2022-10-28T05:54:04.359Z,6.68
2022-10-28T05:55:07.376Z,4.97
2022-10-28T05:56:11.149Z,4.70
2022-10-28T05:57:16.386Z,4.70
2022-10-28T05:58:17.825Z,4.78
2022-10-28T05:59:21.562Z,4.03
2022-10-28T06:00:26.466Z,4.35
2022-10-28T06:01:28.841Z,4.63
2022-10-28T06:02:31.169Z,5.85
2022-10-28T06:03:36.017Z,4.68
2022-10-28T06:04:38.071Z,4.90
2022-10-28T06:05:45.278Z,5.53
2022-10-28T06:06:47.440Z,6.65
2022-10-28T06:07:50.781Z,5.75
2022-10-28T06:08:52.252Z,6.18
2022-10-28T06:09:54.273Z,5.70
2022-10-28T06:10:54.037Z,5.70
2022-10-28T06:11:56.526Z,4.72
2022-10-28T06:12:58.616Z,4.72
2022-10-28T06:14:03.451Z,4.28
2022-10-28T06:15:05.906Z,4.13
2022-10-28T06:16:07.151Z,4.63
2022-10-28T06:17:10.529Z,4.57
2022-10-28T06:18:16.651Z,4.60
2022-10-28T06:19:20.557Z,4.13
2022-10-28T06:20:23.181Z,4.85
2022-10-28T06:21:24.691Z,4.30
2022-10-28T06:22:27.380Z,4.03
2022-10-28T06:23:30.715Z,3.90
2022-10-28T06:29:57.428Z,5.40
2022-10-28T06:33:30.302Z,11.57
2022-10-28T06:38:16.837Z,5.88
2022-10-28T06:58:53.359Z,5.43
2022-10-28T07:00:25.065Z,6.13
2022-10-28T07:02:52.342Z,6.83
2022-10-28T07:05:49.400Z,6.53
2022-10-28T07:06:55.575Z,7.03
2022-10-28T07:07:57.444Z,7.40
2022-10-28T07:09:00.483Z,5.72
2022-10-28T07:10:02.557Z,5.68
2022-10-28T07:11:37.261Z,7.60
2022-10-28T07:12:42.451Z,7.28
2022-10-28T07:14:01.181Z,5.30
2022-10-28T07:15:16.609Z,4.47
2022-10-28T07:18:57.443Z,3.88
2022-10-28T07:20:32.919Z,4.03
2022-10-28T07:21:38.997Z,4.00
2022-10-28T07:22:45.093Z,3.75
2022-10-28T07:23:48.021Z,3.65
2022-10-28T07:24:49.822Z,3.90
2022-10-28T07:26:16.747Z,3.72
2022-10-28T07:27:58.303Z,3.65
2022-10-28T07:29:05.571Z,3.78
2022-10-28T07:30:08.929Z,3.70
2022-10-28T07:31:18.243Z,4.25
2022-10-28T07:32:20.480Z,3.67
2022-10-28T07:33:24.310Z,4.05
2022-10-28T07:34:29.468Z,4.32
2022-10-28T07:35:32.527Z,4.18
2022-10-28T07:36:34.743Z,4.32
2022-10-28T07:37:40.893Z,4.50
2022-10-28T07:38:44.287Z,5.15
2022-10-28T07:39:48.791Z,5.20
2022-10-28T07:40:51.440Z,5.70
2022-10-28T07:41:53.480Z,5.15
2022-10-28T07:42:55.616Z,5.50
2022-10-28T07:44:02.671Z,5.70
2022-10-28T07:45:07.889Z,7.00
2022-10-28T07:46:20.125Z,6.05
2022-10-28T07:47:25.212Z,6.50
2022-10-28T07:48:30.386Z,5.55
2022-10-28T07:50:29.273Z,5.10
2022-10-28T07:51:46.074Z,5.53
2022-10-28T07:52:48.477Z,7.72
2022-10-28T07:53:50.489Z,5.60
2022-10-28T07:56:35.804Z,4.28
2022-10-28T07:57:41.182Z,4.75
2022-10-28T07:58:52.593Z,3.97
2022-10-28T07:59:55.451Z,4.55
2022-10-28T08:01:01.916Z,3.85
2022-10-28T08:02:07.666Z,4.32
2022-10-28T08:03:09.693Z,4.90
2022-10-28T08:07:22.697Z,5.38
2022-10-28T08:09:56.197Z,5.70
2022-10-28T08:11:24.784Z,6.38
2022-10-28T08:12:34.617Z,6.40
2022-10-28T08:13:40.236Z,6.67
2022-10-28T08:14:43.814Z,6.32
2022-10-28T08:15:56.329Z,5.65
2022-10-28T08:17:08.226Z,6.35
2022-10-28T08:18:12.613Z,5.90
2022-10-28T08:19:18.351Z,6.30
2022-10-28T08:20:20.999Z,6.47
2022-10-28T08:21:26.558Z,6.00
2022-10-28T08:22:37.755Z,5.70
2022-10-28T08:23:52.023Z,7.30
2022-10-28T08:24:55.538Z,7.20
2022-10-28T08:25:57.489Z,6.65
2022-10-28T08:26:59.281Z,6.20
2022-10-28T08:28:00.687Z,6.35
2022-10-28T08:29:08.159Z,6.68
2022-10-28T08:30:17.306Z,6.47
2022-10-28T08:31:22.947Z,6.22
2022-10-28T08:32:24.384Z,6.22
2022-10-28T08:33:26.636Z,5.55
2022-10-28T08:34:39.477Z,5.47
2022-10-28T08:35:51.567Z,6.43
2022-10-28T08:36:54.461Z,6.60
2022-10-28T08:37:57.513Z,5.28
2022-10-28T08:39:01.544Z,4.75
2022-10-28T08:40:12.885Z,4.65
2022-10-28T08:41:33.045Z,5.22
2022-10-28T08:46:50.135Z,6.60
2022-10-28T08:48:35.563Z,5.80
2022-10-28T08:49:45.736Z,6.00
2022-10-28T08:51:00.077Z,5.65
2022-10-28T08:52:16.643Z,8.90
2022-10-28T08:53:34.582Z,6.78
2022-10-28T08:54:47.732Z,6.47
2022-10-28T08:55:52.962Z,6.30
2022-10-28T08:56:58.772Z,7.13
2022-10-28T08:58:19.911Z,6.78
2022-10-28T08:59:28.025Z,5.32
2022-10-28T09:00:31.850Z,5.20
2022-10-28T09:01:40.746Z,5.10
2022-10-28T09:03:08.116Z,5.93
2022-10-28T09:04:35.205Z,5.47
2022-10-28T09:05:38.215Z,5.30
2022-10-28T09:06:41.062Z,5.40
2022-10-28T09:07:46.491Z,5.35
2022-10-28T09:08:49.624Z,6.38
2022-10-28T09:09:59.405Z,6.40
2022-10-28T09:11:12.634Z,6.68
2022-10-28T09:12:33.185Z,6.95
2022-10-28T09:13:47.866Z,6.40
2022-10-28T09:15:08.868Z,5.85
2022-10-28T09:16:33.137Z,6.38
2022-10-28T09:17:43.069Z,6.80
2022-10-28T09:19:03.385Z,6.97
2022-10-28T09:20:34.443Z,6.75
2022-10-28T09:21:40.708Z,6.43
2022-10-28T09:22:57.314Z,6.93
2022-10-28T09:24:12.516Z,7.30
2022-10-28T09:25:31.514Z,6.75
2022-10-28T09:26:52.865Z,6.05
2022-10-28T09:28:15.786Z,7.18
2022-10-28T09:29:37.288Z,6.70
2022-10-28T09:30:49.001Z,4.70
2022-10-28T09:32:11.617Z,6.55
2022-10-28T09:33:39.883Z,7.18
2022-10-28T09:35:03.512Z,6.75
2022-10-28T09:36:12.358Z,5.88
2022-10-28T09:37:22.078Z,5.95
2022-10-28T09:38:45.140Z,5.63
2022-10-28T09:39:50.242Z,5.75
2022-10-28T09:40:56.626Z,6.30
2022-10-28T09:42:04.784Z,7.20
2022-10-28T09:43:14.499Z,7.78
2022-10-28T09:44:29.435Z,5.32
2022-10-28T09:45:32.386Z,5.00
2022-10-28T09:46:37.146Z,5.57
2022-10-28T09:47:56.612Z,5.35
2022-10-28T09:49:17.538Z,5.30
2022-10-28T09:50:22.741Z,6.35
2022-10-28T09:51:32.345Z,6.38
2022-10-28T09:53:01.605Z,6.68
2022-10-28T09:54:04.499Z,6.57
2022-10-28T09:55:08.673Z,5.32
2022-10-28T09:56:11.673Z,4.93
2022-10-28T09:57:17.384Z,4.63
2022-10-28T09:58:23.462Z,4.78
2022-10-28T09:59:25.150Z,5.90
2022-10-28T10:00:27.524Z,5.28
2022-10-28T10:01:37.338Z,5.45
2022-10-28T10:02:40.384Z,5.30
2022-10-28T10:03:46.046Z,4.88
2022-10-28T10:04:49.789Z,4.80
2022-10-28T10:05:52.969Z,4.55
2022-10-28T10:06:57.949Z,5.53
2022-10-28T10:08:15.244Z,6.40
2022-10-28T10:09:28.976Z,6.75
2022-10-28T10:10:34.602Z,5.78
2022-10-28T10:11:39.358Z,5.55
2022-10-28T10:12:41.363Z,5.47
2022-10-28T10:13:45.662Z,4.72
2022-10-28T10:14:56.698Z,5.20
2022-10-28T10:16:05.500Z,5.57
2022-10-28T10:17:32.619Z,5.10
2022-10-28T10:18:36.330Z,4.65
2022-10-28T10:20:01.371Z,5.18
2022-10-28T10:21:05.282Z,4.07
2022-10-28T10:22:07.342Z,4.10
2022-10-28T10:23:21.645Z,4.50
2022-10-28T10:24:33.285Z,4.70
2022-10-28T10:25:36.049Z,4.53
2022-10-28T10:26:39.281Z,4.28
2022-10-28T10:27:41.323Z,4.88
2022-10-28T10:28:48.300Z,4.13
2022-10-28T10:29:51.683Z,5.25
2022-10-28T10:30:58.944Z,3.75
2022-10-28T10:32:11.157Z,4.43
2022-10-28T10:33:21.330Z,4.40
2022-10-28T10:34:25.523Z,3.50
2022-10-28T10:35:48.116Z,3.72
2022-10-28T10:36:55.641Z,4.78
2022-10-28T10:37:58.963Z,5.18
2022-10-28T10:39:05.612Z,4.15
2022-10-28T10:40:12.298Z,3.28
2022-10-28T10:41:32.912Z,3.40
2022-10-28T10:42:39.263Z,4.68
2022-10-28T10:43:49.959Z,3.33
2022-10-28T10:44:59.146Z,4.75
2022-10-28T10:46:13.851Z,3.63
2022-10-28T10:47:16.804Z,4.60
2022-10-28T10:48:19.985Z,4.05
2022-10-28T10:49:22.270Z,3.70
2022-10-28T10:50:33.110Z,3.50
2022-10-28T10:51:40.103Z,3.90
2022-10-28T10:52:48.317Z,4.07
2022-10-28T10:53:52.854Z,3.13
2022-10-28T10:54:58.160Z,3.50
2022-10-28T10:56:01.595Z,5.07
2022-10-28T10:57:17.310Z,4.72
2022-10-28T10:58:21.048Z,4.13
2022-10-28T10:59:23.327Z,3.70
2022-10-28T11:00:29.219Z,4.03
2022-10-28T11:01:36.988Z,3.60
2022-10-28T11:02:40.096Z,4.95
2022-10-28T11:04:03.242Z,4.53
2022-10-28T11:05:23.008Z,5.70
2022-10-28T11:06:36.508Z,4.13
2022-10-28T11:07:47.098Z,4.97
2022-10-28T11:08:55.112Z,7.38
2022-10-28T11:09:57.232Z,6.57
2022-10-28T11:11:19.960Z,3.65
2022-10-28T11:12:41.078Z,4.18
2022-10-28T11:13:46.054Z,4.35
2022-10-28T11:15:02.625Z,4.00
2022-10-28T11:16:10.438Z,4.68
2022-10-28T11:17:23.147Z,3.35
2022-10-28T11:18:25.533Z,3.55
2022-10-28T11:19:34.800Z,3.63
2022-10-28T11:20:57.527Z,6.00
2022-10-28T11:21:59.210Z,4.80
2022-10-28T11:23:21.057Z,3.85
2022-10-28T11:24:29.399Z,3.83
2022-10-28T11:25:42.917Z,2.80
2022-10-28T11:27:02.559Z,3.00
2022-10-28T11:28:22.607Z,3.13
2022-10-28T11:29:25.646Z,3.17
2022-10-28T11:30:35.564Z,3.03
2022-10-28T11:31:51.269Z,3.33
2022-10-28T11:33:28.378Z,4.38
2022-10-28T11:34:27.421Z,3.63
2022-10-28T11:35:50.655Z,4.45
2022-10-28T11:37:13.317Z,3.17
2022-10-28T11:38:36.864Z,3.70
2022-10-28T11:39:57.080Z,2.80
2022-10-28T11:41:15.287Z,2.90
2022-10-28T11:42:37.445Z,3.67
2022-10-28T11:43:50.907Z,2.70
2022-10-28T11:45:04.351Z,3.40
2022-10-28T11:46:12.903Z,3.35
2022-10-28T11:47:14.215Z,3.45
2022-10-28T11:48:34.464Z,3.05
2022-10-28T11:49:36.682Z,3.13
2022-10-28T11:50:56.676Z,3.72
2022-10-28T11:52:16.588Z,4.32
2022-10-28T11:53:27.182Z,4.20
2022-10-28T11:54:50.759Z,3.95
2022-10-28T11:56:12.459Z,4.20
2022-10-28T11:57:21.891Z,3.65
2022-10-28T11:58:42.427Z,4.35
2022-10-28T12:00:02.812Z,3.60
2022-10-28T12:01:13.601Z,4.30
2022-10-28T12:02:18.135Z,2.78
2022-10-28T12:03:51.207Z,5.57
2022-10-28T12:05:12.597Z,4.07
2022-10-28T12:06:32.972Z,2.92
2022-10-28T12:07:53.353Z,3.55
2022-10-28T12:09:09.400Z,4.10
2022-10-28T12:10:19.689Z,3.83
2022-10-28T12:11:31.432Z,4.75
2022-10-28T12:12:51.443Z,4.30
2022-10-28T12:15:13.450Z,3.97
2022-10-28T12:16:18.353Z,3.50
2022-10-28T12:17:26.193Z,3.08
2022-10-28T12:18:33.757Z,3.45
2022-10-28T12:19:38.970Z,3.22
2022-10-28T12:20:40.482Z,3.20
2022-10-28T12:21:49.350Z,2.22
2022-10-28T12:22:53.897Z,3.10
2022-10-28T12:23:56.721Z,3.33
2022-10-28T12:25:00.465Z,3.45
2022-10-28T12:26:05.247Z,3.65
2022-10-28T12:27:32.520Z,3.47
2022-10-28T12:28:42.052Z,2.85
2022-10-28T12:29:47.150Z,2.20
2022-10-28T12:30:51.174Z,2.70
2022-10-28T12:32:13.800Z,2.50
2022-10-28T12:33:33.544Z,3.38
2022-10-28T12:34:52.008Z,2.90
2022-10-28T12:36:08.768Z,3.35
2022-10-28T12:37:13.824Z,3.20
2022-10-28T12:38:21.497Z,3.47
2022-10-28T12:40:29.325Z,2.90
2022-10-28T12:41:53.047Z,3.10
2022-10-28T12:43:24.183Z,2.60
2022-10-28T12:44:31.037Z,3.05
2022-10-28T12:45:33.003Z,3.67
2022-10-28T12:46:53.117Z,5.78
2022-10-28T12:48:20.601Z,3.50
2022-10-28T12:49:42.270Z,3.25
2022-10-28T12:51:03.138Z,2.85
2022-10-28T12:52:12.680Z,3.53
2022-10-28T12:53:18.757Z,3.13
2022-10-28T12:54:26.713Z,2.92
2022-10-28T12:55:46.432Z,3.05
2022-10-28T12:56:50.700Z,5.10
2022-10-28T13:14:50.828Z,3.10
2022-10-28T13:16:11.281Z,3.47
2022-10-28T13:17:33.397Z,3.85
2022-10-28T13:18:40.900Z,4.30
2022-10-28T13:22:08.836Z,3.90
2022-10-28T13:23:29.421Z,3.28
2022-10-28T13:24:50.121Z,3.03
2022-10-28T13:26:10.650Z,3.55
2022-10-28T13:27:16.029Z,2.75
2022-10-28T13:29:28.060Z,3.90
2022-10-28T13:45:36.393Z,1.65
2022-10-28T13:48:49.320Z,1.65
2022-10-28T13:50:12.804Z,1.53
2022-10-28T13:54:32.926Z,1.70
2022-10-28T13:55:54.949Z,1.67
2022-10-28T13:57:02.002Z,2.00
2022-10-28T13:58:08.230Z,1.30
2022-10-28T13:59:15.041Z,1.65
2022-10-28T14:00:22.327Z,1.25
2022-10-28T14:01:45.263Z,1.92
2022-10-28T14:02:57.167Z,1.70
2022-10-28T14:03:59.378Z,1.92
2022-10-28T14:05:07.584Z,1.83
2022-10-28T14:06:09.653Z,2.60
2022-10-28T14:07:21.894Z,2.45
2022-10-28T14:08:30.621Z,2.15
2022-10-28T14:09:35.008Z,1.60
2022-10-28T14:10:43.758Z,2.63
2022-10-28T14:11:48.064Z,1.88
2022-10-28T14:13:09.228Z,2.15
2022-10-28T14:14:14.554Z,1.85
2022-10-28T14:15:23.319Z,1.73
2022-10-28T14:16:45.613Z,3.22
2022-10-28T14:18:15.767Z,2.83
2022-10-28T14:19:30.150Z,2.00
2022-10-28T14:20:40.488Z,2.25
2022-10-28T14:22:02.502Z,2.25
2022-10-28T14:23:22.653Z,2.00
2022-10-28T14:24:31.749Z,2.40
2022-10-28T14:25:41.793Z,2.50
2022-10-28T14:27:02.605Z,3.50
2022-10-28T14:28:29.528Z,4.35
2022-10-28T14:29:34.868Z,2.42
2022-10-28T14:30:40.734Z,2.75
2022-10-28T14:31:45.983Z,3.10
2022-10-28T14:33:54.398Z,2.10
2022-10-28T14:35:15.070Z,2.40
2022-10-28T14:36:25.216Z,2.65
2022-10-28T15:17:25.591Z,1.90
2022-10-28T15:18:30.472Z,2.60
2022-10-28T15:19:35.980Z,3.35
2022-10-28T15:20:38.330Z,2.55
2022-10-28T15:21:40.524Z,3.35
2022-10-28T15:22:45.101Z,2.70
2022-10-28T15:23:58.311Z,2.80
2022-10-28T15:25:12.545Z,2.63
2022-10-28T15:26:26.220Z,2.47
2022-10-28T15:27:32.577Z,3.63
2022-10-28T15:28:35.186Z,4.30
2022-10-28T15:29:37.482Z,3.90
2022-10-28T15:30:45.789Z,4.30
2022-10-28T15:32:07.648Z,4.20
2022-10-28T15:33:21.608Z,4.28
2022-10-28T15:34:24.231Z,4.72
2022-10-28T15:35:34.884Z,4.65
2022-10-28T15:36:36.856Z,4.60
2022-10-28T15:37:39.063Z,6.65
2022-10-28T15:38:43.839Z,7.32
2022-10-28T15:39:52.888Z,7.32
2022-10-28T15:40:57.851Z,6.30
2022-10-28T15:42:01.265Z,6.47
2022-10-28T15:43:18.046Z,6.20
2022-10-28T15:44:27.381Z,5.78
2022-10-28T15:45:29.954Z,5.68
2022-10-28T15:46:32.576Z,6.57
2022-10-28T15:47:38.324Z,5.30
2022-10-28T15:48:43.102Z,5.50
2022-10-28T16:03:49.649Z,3.80
2022-10-28T16:14:23.665Z,3.45
2022-10-28T16:15:26.536Z,3.33
2022-10-28T16:16:41.681Z,3.65
2022-10-28T16:17:43.528Z,3.30
2022-10-28T16:18:50.001Z,3.00
2022-10-28T16:19:54.845Z,4.25
2022-10-28T16:20:59.259Z,4.00
2022-10-28T16:22:02.832Z,4.13
2022-10-28T16:23:19.406Z,4.10
2022-10-28T16:24:23.721Z,3.80
2022-10-28T16:25:26.353Z,3.65
2022-10-28T16:26:32.341Z,4.15
2022-10-28T16:27:34.451Z,3.65
2022-10-28T16:28:37.981Z,3.95
2022-10-28T16:29:40.466Z,4.32
2022-10-28T16:30:41.745Z,4.38
2022-10-28T16:31:44.486Z,7.00
2022-10-28T16:32:50.572Z,6.78
2022-10-28T16:33:56.765Z,6.00
2022-10-28T16:35:01.257Z,6.90
2022-10-28T16:36:04.078Z,7.78
2022-10-28T16:37:16.878Z,7.45
2022-10-28T16:38:21.006Z,7.75
2022-10-28T16:39:23.554Z,7.45
2022-10-28T16:41:54.873Z,8.05
2022-10-28T16:42:56.863Z,11.82
2022-10-28T16:44:00.833Z,9.10
2022-10-28T16:45:05.160Z,9.68
2022-10-28T16:46:09.324Z,9.80
2022-10-28T16:47:21.175Z,9.63
2022-10-28T16:48:27.319Z,5.32
2022-10-28T16:49:30.646Z,8.48
2022-10-28T16:50:32.795Z,6.50
2022-10-28T16:51:37.641Z,6.03
2022-10-28T16:52:40.320Z,6.03
2022-10-28T16:53:47.481Z,12.73
2022-10-28T16:54:50.481Z,6.87
2022-10-28T16:55:54.089Z,5.95
2022-10-28T16:56:58.617Z,4.55
2022-10-28T16:58:00.564Z,4.93
2022-10-28T16:59:03.487Z,5.85
2022-10-28T17:00:08.400Z,6.32
2022-10-28T17:01:13.780Z,6.45
2022-10-28T17:02:20.428Z,5.97
2022-10-28T17:03:23.205Z,5.85
2022-10-28T17:04:29.299Z,5.07
2022-10-28T17:05:32.398Z,7.97
2022-10-28T17:06:34.489Z,11.45
2022-10-28T17:07:36.874Z,11.68
2022-10-28T17:10:01.588Z,6.55
2022-10-28T17:11:04.798Z,5.70
2022-10-28T17:12:10.885Z,5.78
2022-10-28T17:13:15.112Z,5.00
2022-10-28T17:14:20.313Z,5.97
2022-10-28T17:15:21.921Z,4.63
2022-10-28T17:16:25.788Z,5.95
2022-10-28T17:17:29.799Z,5.38
2022-10-28T17:18:31.140Z,4.53
2022-10-28T17:19:33.846Z,5.85
2022-10-28T17:20:38.989Z,5.25
2022-10-28T17:21:41.908Z,4.88
2022-10-28T17:22:46.701Z,5.60
2022-10-28T17:23:50.813Z,5.05
2022-10-28T17:24:52.668Z,4.72
2022-10-28T17:26:02.566Z,6.82
2022-10-28T17:27:04.727Z,5.68
2022-10-28T17:28:08.520Z,7.40
2022-10-28T17:29:10.979Z,9.77
2022-10-28T17:30:18.459Z,4.68
2022-10-28T17:31:24.971Z,5.60
2022-10-28T17:32:27.113Z,4.90
2022-10-28T17:33:30.066Z,5.32
2022-10-28T17:34:31.450Z,4.82
2022-10-28T17:35:34.508Z,7.03
2022-10-28T17:36:37.306Z,7.47
2022-10-28T17:37:38.970Z,6.15
2022-10-28T17:38:40.646Z,6.20
2022-10-28T17:39:43.629Z,7.28
2022-10-28T17:40:53.097Z,7.72